This is the latest recevied weather packets stored in our database for station/object KG7KID-5. If no packets are shown the sender has not sent any weather packets the latest 10 day(s).
| Time | Temp. | Humidity | Pressure | Rain* | Wind** | Luminosity | Snow |
|---|---|---|---|---|---|---|---|
| 1778274689 | 34.44° C | 8% | 925.9 hPa | 0 mm | - | - | - |
| 1778273182 | 34.44° C | 7% | 926.2 hPa | 0 mm | - | - | - |
| 1778259690 | 25.56° C | 14% | 930.1 hPa | 0 mm | - | - | - |
| 1778259613 | 25.56° C | 14% | 930.1 hPa | 0 mm | - | - | - |
| 1778259313 | 26.11° C | 15% | 930.2 hPa | 0 mm | - | - | - |
| 1778259012 | 26.11° C | 14% | 930.3 hPa | 0 mm | - | - | - |
| 1778258712 | 26.11° C | 13% | 930.4 hPa | 0 mm | - | - | - |
| 1778258412 | 25.56° C | 14% | 930.4 hPa | 0 mm | - | - | - |
| 1778258144 | 25.56° C | 13% | 930.4 hPa | 0 mm | - | - | - |
| 1778258113 | 25.56° C | 13% | 930.4 hPa | 0 mm | - | - | - |
| 1778257513 | 24.44° C | 14% | 930.6 hPa | 0 mm | - | - | - |
| 1778256652 | 23.33° C | 15% | 930.7 hPa | 0 mm | - | - | - |
| 1778256613 | 23.33° C | 15% | 930.7 hPa | 0 mm | - | - | - |
| 1778256343 | 23.33° C | 15% | 930.7 hPa | 0 mm | - | - | - |
| 1778256312 | 23.33° C | 15% | 930.7 hPa | 0 mm | - | - | - |
| 1778256078 | 23.33° C | 15% | 930.9 hPa | 0 mm | - | - | - |
| 1778256013 | 23.33° C | 15% | 930.9 hPa | 0 mm | - | - | - |
| 1778255713 | 22.78° C | 16% | 930.9 hPa | 0 mm | - | - | - |
| 1778255413 | 22.22° C | 16% | 930.9 hPa | 0 mm | - | - | - |
| 1778255113 | 22.22° C | 17% | 930.9 hPa | 0 mm | - | - | - |
| 1778254813 | 22.22° C | 17% | 931 hPa | 0 mm | - | - | - |
| 1778254512 | 22.22° C | 17% | 931 hPa | 0 mm | - | - | - |
| 1778251839 | 19.44° C | 21% | 931.4 hPa | 0 mm | - | - | - |
| 1778251778 | 19.44° C | 21% | 931.4 hPa | 0 mm | - | - | - |
| 1778251082 | 18.33° C | 20% | 931.5 hPa | 0 mm | - | - | - |
* Rain latest hour (hover to see other rain measurements)
** Current wind speed in m/s (hover to see current wind gust speed)